createdAt,value
2022-09-13T00:04:53.524Z,2.50
2022-09-13T00:09:55.150Z,2.47
2022-09-13T00:14:56.863Z,1.92
2022-09-13T00:19:58.498Z,2.45
2022-09-13T00:25:00.324Z,2.83
2022-09-13T00:30:02.570Z,1.98
2022-09-13T00:35:05.972Z,2.28
2022-09-13T00:40:08.087Z,2.50
2022-09-13T00:45:12.786Z,2.85
2022-09-13T00:50:40.386Z,2.75
2022-09-13T01:00:55.454Z,2.08
2022-09-13T01:06:04.666Z,2.70
2022-09-13T01:11:12.087Z,2.90
2022-09-13T01:16:13.720Z,2.75
2022-09-13T01:22:01.246Z,2.63
2022-09-13T01:27:23.690Z,2.47
2022-09-13T01:32:41.114Z,2.78
2022-09-13T01:43:12.643Z,2.38
2022-09-13T01:48:20.421Z,3.15
2022-09-13T01:53:40.085Z,2.15
2022-09-13T01:59:05.336Z,2.70
2022-09-13T02:04:13.191Z,2.50
2022-09-13T02:09:21.489Z,2.33
2022-09-13T02:14:29.187Z,2.78
2022-09-13T02:19:35.570Z,2.63
2022-09-13T02:24:45.184Z,3.20
2022-09-13T02:29:50.512Z,2.67
2022-09-13T02:35:25.344Z,2.67
2022-09-13T02:40:30.323Z,2.60
2022-09-13T02:45:41.362Z,2.67
2022-09-13T02:51:04.483Z,3.22
2022-09-13T02:56:27.394Z,2.63
2022-09-13T03:01:29.484Z,2.70
2022-09-13T03:06:31.212Z,2.28
2022-09-13T03:11:56.713Z,2.80
2022-09-13T03:17:16.248Z,2.63
2022-09-13T03:22:39.122Z,2.72
2022-09-13T03:28:01.057Z,2.10
2022-09-13T03:33:35.218Z,2.65
2022-09-13T03:38:53.914Z,2.72
2022-09-13T03:44:02.859Z,2.78
2022-09-13T03:49:09.080Z,2.95
2022-09-13T03:54:19.076Z,3.63
2022-09-13T03:59:20.677Z,3.22
2022-09-13T04:04:22.777Z,2.63
2022-09-13T04:09:24.437Z,3.13
2022-09-13T04:14:28.864Z,4.35
2022-09-13T04:19:31.389Z,3.17
2022-09-13T04:24:33.147Z,2.95
2022-09-13T04:29:34.770Z,3.30
2022-09-13T04:34:36.962Z,4.30
2022-09-13T04:39:38.768Z,3.65
2022-09-13T04:44:40.359Z,4.75
2022-09-13T04:49:42.126Z,3.83
2022-09-13T04:54:43.954Z,4.05
2022-09-13T04:59:45.573Z,4.25
2022-09-13T05:04:47.301Z,4.20
2022-09-13T05:09:48.970Z,3.47
2022-09-13T05:14:50.662Z,3.70
2022-09-13T05:19:52.277Z,3.95
2022-09-13T05:24:53.873Z,3.97
2022-09-13T05:29:55.481Z,4.15
2022-09-13T05:34:57.119Z,3.63
2022-09-13T05:40:13.950Z,4.30
2022-09-13T05:45:15.750Z,4.45
2022-09-13T05:50:33.142Z,3.65
2022-09-13T05:55:39.344Z,3.97
2022-09-13T06:00:40.958Z,4.45
2022-09-13T06:05:42.553Z,4.00
2022-09-13T06:10:44.166Z,4.55
2022-09-13T06:15:45.749Z,3.88
2022-09-13T06:20:47.801Z,4.40
2022-09-13T06:25:49.396Z,4.43
2022-09-13T06:30:51.261Z,4.18
2022-09-13T06:35:52.939Z,4.85
2022-09-13T06:41:07.685Z,3.83
2022-09-13T06:46:14.603Z,4.47
2022-09-13T06:51:18.278Z,4.40
2022-09-13T06:56:32.434Z,4.63
2022-09-13T07:01:36.872Z,5.13
2022-09-13T07:06:41.073Z,4.78
2022-09-13T07:11:43.154Z,4.25
2022-09-13T07:16:46.309Z,4.28
2022-09-13T07:21:49.752Z,4.68
2022-09-13T07:26:51.733Z,4.57
2022-09-13T07:31:55.148Z,5.15
2022-09-13T07:36:56.771Z,4.63
2022-09-13T07:41:58.487Z,4.60
2022-09-13T07:47:00.501Z,5.38
2022-09-13T07:52:02.252Z,6.05
2022-09-13T07:57:04.053Z,4.45
2022-09-13T08:02:05.913Z,5.18
2022-09-13T08:07:07.676Z,4.90
2022-09-13T08:12:09.370Z,4.57
2022-09-13T08:17:10.949Z,4.63
2022-09-13T08:22:12.565Z,4.07
2022-09-13T08:27:14.205Z,4.88
2022-09-13T08:32:15.794Z,5.30
2022-09-13T08:37:17.388Z,4.80
2022-09-13T08:42:50.004Z,5.25
2022-09-13T08:48:03.685Z,4.90
2022-09-13T08:53:24.207Z,4.47
2022-09-13T08:58:46.947Z,3.63
2022-09-13T09:03:59.185Z,4.18
2022-09-13T09:09:00.777Z,4.32
2022-09-13T09:14:17.326Z,5.32
2022-09-13T09:19:34.229Z,3.75
2022-09-13T09:29:40.172Z,3.33
2022-09-13T09:35:15.646Z,4.45
2022-09-13T09:40:17.983Z,5.03
2022-09-13T09:45:30.748Z,5.28
2022-09-13T09:50:38.315Z,5.05
2022-09-13T09:55:45.782Z,5.63
2022-09-13T10:00:59.083Z,4.82
2022-09-13T10:06:11.250Z,5.32
2022-09-13T10:11:12.882Z,5.68
2022-09-13T10:16:27.742Z,6.53
2022-09-13T10:21:29.892Z,5.85
2022-09-13T10:26:33.464Z,6.18
2022-09-13T10:31:38.615Z,5.78
2022-09-13T10:37:06.169Z,5.97
2022-09-13T10:42:10.094Z,5.65
2022-09-13T10:47:20.007Z,5.47
2022-09-13T10:52:34.270Z,5.00
2022-09-13T10:57:37.354Z,4.65
2022-09-13T11:03:16.227Z,3.90
2022-09-13T11:08:29.443Z,4.03
2022-09-13T11:13:43.040Z,4.10
2022-09-13T11:19:00.809Z,3.90
2022-09-13T11:24:23.785Z,3.57
2022-09-13T11:29:37.087Z,4.07
2022-09-13T11:34:56.354Z,3.70
2022-09-13T11:40:19.919Z,3.33
2022-09-13T11:45:25.913Z,4.07
2022-09-13T11:50:38.055Z,2.83
2022-09-13T11:55:50.816Z,2.83
2022-09-13T12:01:07.068Z,2.58
2022-09-13T12:06:28.949Z,2.92
2022-09-13T12:11:43.307Z,2.92
2022-09-13T12:16:52.597Z,3.05
2022-09-13T12:21:57.687Z,2.70
2022-09-13T12:27:28.259Z,3.58
2022-09-13T12:32:31.310Z,2.38
2022-09-13T12:37:57.226Z,2.22
2022-09-13T12:43:33.961Z,2.33
2022-09-13T12:49:19.488Z,2.60
2022-09-13T12:54:36.243Z,2.20
2022-09-13T12:59:52.221Z,2.10
2022-09-13T13:04:59.731Z,2.00
2022-09-13T13:10:03.076Z,2.13
2022-09-13T13:15:30.739Z,2.10
2022-09-13T13:21:22.273Z,2.25
2022-09-13T13:26:43.376Z,1.60
2022-09-13T13:32:04.582Z,2.05
2022-09-13T13:37:28.327Z,2.08
2022-09-13T13:42:35.216Z,2.08
2022-09-13T13:47:39.548Z,1.67
2022-09-13T13:52:47.034Z,1.40
2022-09-13T13:58:02.164Z,1.25
2022-09-13T14:03:23.291Z,1.45
2022-09-13T14:14:24.245Z,1.30
2022-09-13T14:19:40.593Z,1.30
2022-09-13T14:24:46.431Z,1.13
2022-09-13T14:29:52.066Z,1.40
2022-09-13T14:35:00.273Z,0.80
2022-09-13T14:40:28.189Z,1.15
2022-09-13T14:45:35.958Z,1.73
2022-09-13T14:50:42.945Z,1.88
2022-09-13T14:55:52.884Z,1.40
2022-09-13T15:01:08.558Z,2.00
2022-09-13T15:06:21.270Z,2.33
2022-09-13T15:11:33.647Z,2.15
2022-09-13T15:16:35.333Z,2.30
2022-09-13T15:21:37.319Z,2.28
2022-09-13T15:26:38.969Z,2.67
2022-09-13T15:31:40.619Z,2.30
2022-09-13T15:36:42.254Z,2.88
2022-09-13T15:42:00.738Z,3.20
2022-09-13T15:47:07.947Z,3.20
2022-09-13T15:52:10.673Z,3.08
2022-09-13T15:57:22.823Z,2.67
2022-09-13T16:02:31.937Z,2.60
2022-09-13T16:07:33.669Z,3.60
2022-09-13T16:12:35.351Z,2.92
2022-09-13T16:17:36.964Z,3.38
2022-09-13T16:22:38.571Z,2.75
2022-09-13T16:27:41.367Z,3.30
2022-09-13T16:32:43.608Z,4.10
2022-09-13T16:37:45.254Z,3.72
2022-09-13T16:42:47.289Z,3.63
2022-09-13T16:47:49.086Z,3.45
2022-09-13T16:52:50.779Z,3.20
2022-09-13T16:57:52.527Z,3.65
2022-09-13T17:02:55.949Z,3.92
2022-09-13T17:07:57.651Z,4.28
2022-09-13T17:12:59.475Z,4.10
2022-09-13T17:18:01.339Z,3.85
2022-09-13T17:23:03.007Z,3.72
2022-09-13T17:28:04.688Z,4.85
2022-09-13T17:33:06.833Z,5.50
2022-09-13T17:38:08.394Z,4.65
2022-09-13T17:43:09.983Z,3.90
2022-09-13T17:48:12.347Z,4.80
2022-09-13T17:53:14.163Z,5.55
2022-09-13T17:58:16.429Z,4.80
2022-09-13T18:03:18.156Z,4.30
2022-09-13T18:08:19.802Z,5.20
2022-09-13T18:13:22.072Z,5.32
2022-09-13T18:18:24.168Z,6.32
2022-09-13T18:23:25.813Z,5.80
2022-09-13T18:28:28.198Z,6.22
2022-09-13T18:33:29.889Z,5.80
2022-09-13T18:38:35.173Z,6.32
2022-09-13T18:43:39.507Z,5.90
2022-09-13T18:48:43.649Z,7.45
2022-09-13T18:53:45.984Z,6.90
2022-09-13T18:58:47.980Z,7.60
2022-09-13T19:04:11.592Z,6.65
2022-09-13T19:09:16.698Z,8.18
2022-09-13T19:14:28.567Z,7.05
2022-09-13T19:19:31.179Z,7.30
2022-09-13T19:24:33.742Z,7.80
2022-09-13T19:29:35.941Z,7.75
2022-09-13T19:34:37.790Z,8.13
2022-09-13T19:39:39.614Z,8.35
2022-09-13T19:44:41.417Z,8.68
2022-09-13T19:49:43.248Z,7.60
2022-09-13T19:54:44.879Z,8.02
2022-09-13T19:59:46.522Z,7.13
2022-09-13T20:04:48.685Z,8.75
2022-09-13T20:09:50.930Z,7.55
2022-09-13T20:14:52.601Z,8.65
2022-09-13T20:19:54.364Z,8.38
2022-09-13T20:24:57.672Z,8.77
2022-09-13T20:29:59.693Z,8.07
2022-09-13T20:35:01.360Z,8.80
2022-09-13T20:40:03.657Z,8.48
2022-09-13T20:45:06.464Z,7.57
2022-09-13T20:50:08.395Z,8.32
2022-09-13T20:55:10.198Z,7.97
2022-09-13T21:00:12.681Z,8.57
2022-09-13T21:05:14.380Z,8.35
2022-09-13T21:10:16.230Z,8.77
2022-09-13T21:15:19.423Z,8.98
2022-09-13T21:20:21.156Z,8.82
2022-09-13T21:25:22.969Z,8.40
2022-09-13T21:30:24.794Z,8.50
2022-09-13T21:35:27.111Z,8.40
2022-09-13T21:40:28.816Z,8.30
2022-09-13T21:45:31.378Z,8.88
2022-09-13T21:50:33.172Z,8.45
2022-09-13T21:55:35.853Z,9.32
2022-09-13T22:06:01.543Z,9.23
2022-09-13T22:11:05.851Z,9.18
2022-09-13T22:16:09.528Z,9.52
2022-09-13T22:21:15.686Z,10.63
2022-09-13T22:26:20.522Z,10.70
2022-09-13T22:31:25.379Z,9.52
2022-09-13T22:36:29.278Z,9.10
2022-09-13T22:41:33.496Z,10.57
2022-09-13T22:46:37.910Z,11.57
2022-09-13T22:51:45.084Z,13.30
2022-09-13T22:56:47.225Z,12.52
2022-09-13T23:01:49.473Z,13.77
2022-09-13T23:06:51.146Z,10.95
2022-09-13T23:11:52.771Z,10.35
2022-09-13T23:16:54.949Z,11.63
2022-09-13T23:21:56.657Z,11.27
2022-09-13T23:26:58.385Z,11.20
2022-09-13T23:32:00.007Z,11.45
2022-09-13T23:37:01.698Z,11.82
2022-09-13T23:42:04.261Z,11.52
2022-09-13T23:47:06.107Z,12.55
2022-09-13T23:52:07.690Z,11.30
2022-09-13T23:57:09.464Z,11.38
